Station Historical Data
Daily Summary for February 23, 2017 Units:  Both    English   Metric
« Previous Day
Next Day »
Daily Weekly Monthly Yearly Custom
  High: Low: Average:
Temperature: 59.5 °F /  15.3 °C 42.5 °F /  5.8 °C 53.1 °F /  11.7 °C
Dew Point: 53.3 °F /  11.8 °C 38.0 °F /  3.3 °C 48.1 °F /  8.9 °C
Humidity: 91% 78% 83%
Wind Speed: 15.0mph /  24.1km/h - 5.2mph /  8.4km/h
Wind Gust: 25.0mph /  40.2km/h - -
Wind- - SSW
Pressure: 29.88 in /  1011.7 hPa 29.66 in /  1004.3 hPa -
Precipitation: 0.00 in /  0 mm    
Historical Graphs
 
 
Tabular Data for February 23, 2017
Time Temperature Dew Point Pressure Wind Wind Speed Wind Gust Humidity Rainfall Rate (Hourly)
00:04 56.8 °F /  13.8 °C 51.7 °F /  10.9 °C 29.75in /  1007.3hPa South 3.0mph /  4.8km/h 7.0mph /  11.3km/h 83% 0.00in /  0mm
00:09 56.8 °F /  13.8 °C 51.7 °F /  10.9 °C 29.74in /  1007hPa SSW 3.0mph /  4.8km/h 7.0mph /  11.3km/h 83% 0.00in /  0mm
00:14 57.0 °F /  13.9 °C 51.9 °F /  11.1 °C 29.74in /  1007hPa SW 5.0mph /  8km/h 9.0mph /  14.5km/h 83% 0.00in /  0mm
00:19 57.1 °F /  13.9 °C 52.0 °F /  11.1 °C 29.74in /  1007hPa SW 7.0mph /  11.3km/h 10.0mph /  16.1km/h 83% 0.00in /  0mm
00:24 57.1 °F /  13.9 °C 51.7 °F /  10.9 °C 29.74in /  1007hPa SSW 4.0mph /  6.4km/h 10.0mph /  16.1km/h 82% 0.00in /  0mm
00:29 57.0 °F /  13.9 °C 51.6 °F /  10.9 °C 29.74in /  1007hPa SSW 4.0mph /  6.4km/h 8.0mph /  12.9km/h 82% 0.00in /  0mm
00:34 56.7 °F /  13.7 °C 51.6 °F /  10.9 °C 29.73in /  1006.7hPa SSW 4.0mph /  6.4km/h 7.0mph /  11.3km/h 83% 0.00in /  0mm
00:39 56.5 °F /  13.6 °C 51.4 °F /  10.8 °C 29.73in /  1006.7hPa SSW 4.0mph /  6.4km/h 7.0mph /  11.3km/h 83% 0.00in /  0mm
00:44 56.4 °F /  13.6 °C 51.3 °F /  10.7 °C 29.73in /  1006.7hPa SSW 7.0mph /  11.3km/h 10.0mph /  16.1km/h 83% 0.00in /  0mm
00:49 56.2 °F /  13.4 °C 51.1 °F /  10.6 °C 29.73in /  1006.7hPa SW 3.0mph /  4.8km/h 8.0mph /  12.9km/h 83% 0.00in /  0mm
00:54 56.0 °F /  13.3 °C 50.9 °F /  10.5 °C 29.73in /  1006.7hPa SSW 4.0mph /  6.4km/h 8.0mph /  12.9km/h 83% 0.00in /  0mm
00:59 55.8 °F /  13.2 °C 51.0 °F /  10.6 °C 29.73in /  1006.7hPa SSW 4.0mph /  6.4km/h 7.0mph /  11.3km/h 84% 0.00in /  0mm
01:04 55.6 °F /  13.1 °C 50.8 °F /  10.4 °C 29.73in /  1006.7hPa SW 3.0mph /  4.8km/h 7.0mph /  11.3km/h 84% 0.00in /  0mm
01:09 55.7 °F /  13.2 °C 50.9 °F /  10.5 °C 29.73in /  1006.7hPa SSW 4.0mph /  6.4km/h 7.0mph /  11.3km/h 84% 0.00in /  0mm
01:14 55.7 °F /  13.2 °C 50.9 °F /  10.5 °C 29.72in /  1006.3hPa SSW 4.0mph /  6.4km/h 9.0mph /  14.5km/h 84% 0.00in /  0mm
01:19 55.8 °F /  13.2 °C 51.0 °F /  10.6 °C 29.73in /  1006.7hPa South 6.0mph /  9.7km/h 10.0mph /  16.1km/h 84% 0.00in /  0mm
01:24 56.0 °F /  13.3 °C 51.2 °F /  10.7 °C 29.72in /  1006.3hPa South 3.0mph /  4.8km/h 7.0mph /  11.3km/h 84% 0.00in /  0mm
01:29 55.9 °F /  13.3 °C 51.1 °F /  10.6 °C 29.72in /  1006.3hPa SSW 4.0mph /  6.4km/h 7.0mph /  11.3km/h 84% 0.00in /  0mm
01:34 55.8 °F /  13.2 °C 51.0 °F /  10.6 °C 29.72in /  1006.3hPa SSW 4.0mph /  6.4km/h 8.0mph /  12.9km/h 84% 0.00in /  0mm
01:39 55.7 °F /  13.2 °C 50.9 °F /  10.5 °C 29.72in /  1006.3hPa SSW 4.0mph /  6.4km/h 8.0mph /  12.9km/h 84% 0.00in /  0mm
01:44 55.5 °F /  13.1 °C 50.7 °F /  10.4 °C 29.72in /  1006.3hPa SW 4.0mph /  6.4km/h 7.0mph /  11.3km/h 84% 0.00in /  0mm
01:49 55.4 °F /  13 °C 50.6 °F /  10.3 °C 29.71in /  1006hPa South 3.0mph /  4.8km/h 8.0mph /  12.9km/h 84% 0.00in /  0mm
01:54 55.4 °F /  13 °C 50.6 °F /  10.3 °C 29.71in /  1006hPa West 5.0mph /  8km/h 8.0mph /  12.9km/h 84% 0.00in /  0mm
01:59 55.4 °F /  13 °C 50.6 °F /  10.3 °C 29.72in /  1006.3hPa SSW 4.0mph /  6.4km/h 8.0mph /  12.9km/h 84% 0.00in /  0mm
02:04 55.4 °F /  13 °C 50.6 °F /  10.3 °C 29.72in /  1006.3hPa SSW 3.0mph /  4.8km/h 7.0mph /  11.3km/h 84% 0.00in /  0mm
02:09 55.6 °F /  13.1 °C 50.8 °F /  10.4 °C 29.72in /  1006.3hPa SW 4.0mph /  6.4km/h 10.0mph /  16.1km/h 84% 0.00in /  0mm
02:14 56.0 °F /  13.3 °C 51.2 °F /  10.7 °C 29.71in /  1006hPa SW 6.0mph /  9.7km/h 8.0mph /  12.9km/h 84% 0.00in /  0mm
02:19 56.4 °F /  13.6 °C 51.3 °F /  10.7 °C 29.71in /  1006hPa WSW 4.0mph /  6.4km/h 9.0mph /  14.5km/h 83% 0.00in /  0mm
02:24 56.6 °F /  13.7 °C 51.2 °F /  10.7 °C 29.71in /  1006hPa SW 3.0mph /  4.8km/h 15.0mph /  24.1km/h 82% 0.00in /  0mm
02:29 56.9 °F /  13.8 °C 51.5 °F /  10.8 °C 29.71in /  1006hPa SW 4.0mph /  6.4km/h 9.0mph /  14.5km/h 82% 0.00in /  0mm
02:34 56.9 °F /  13.8 °C 51.1 °F /  10.6 °C 29.71in /  1006hPa SW 6.0mph /  9.7km/h 12.0mph /  19.3km/h 81% 0.00in /  0mm
02:39 56.9 °F /  13.8 °C 51.1 °F /  10.6 °C 29.71in /  1006hPa SSW 5.0mph /  8km/h 11.0mph /  17.7km/h 81% 0.00in /  0mm
02:44 56.9 °F /  13.8 °C 51.1 °F /  10.6 °C 29.71in /  1006hPa SSW 5.0mph /  8km/h 11.0mph /  17.7km/h 81% 0.00in /  0mm
02:49 56.9 °F /  13.8 °C 51.1 °F /  10.6 °C 29.71in /  1006hPa SW 4.0mph /  6.4km/h 13.0mph /  20.9km/h 81% 0.00in /  0mm
02:54 56.9 °F /  13.8 °C 51.1 °F /  10.6 °C 29.71in /  1006hPa SW 5.0mph /  8km/h 11.0mph /  17.7km/h 81% 0.00in /  0mm
02:59 56.8 °F /  13.8 °C 51.0 °F /  10.6 °C 29.71in /  1006hPa South 6.0mph /  9.7km/h 8.0mph /  12.9km/h 81% 0.00in /  0mm
03:04 56.8 °F /  13.8 °C 51.0 °F /  10.6 °C 29.71in /  1006hPa SSW 4.0mph /  6.4km/h 9.0mph /  14.5km/h 81% 0.00in /  0mm
03:09 56.8 °F /  13.8 °C 51.0 °F /  10.6 °C 29.70in /  1005.6hPa SSW 4.0mph /  6.4km/h 9.0mph /  14.5km/h 81% 0.00in /  0mm
03:14 56.8 °F /  13.8 °C 51.0 °F /  10.6 °C 29.70in /  1005.6hPa SSW 4.0mph /  6.4km/h 8.0mph /  12.9km/h 81% 0.00in /  0mm
03:19 56.8 °F /  13.8 °C 50.7 °F /  10.4 °C 29.71in /  1006hPa SSW 4.0mph /  6.4km/h 9.0mph /  14.5km/h 80% 0.00in /  0mm
03:24 56.9 °F /  13.8 °C 50.8 °F /  10.4 °C 29.70in /  1005.6hPa SW 4.0mph /  6.4km/h 9.0mph /  14.5km/h 80% 0.00in /  0mm
03:29 57.0 °F /  13.9 °C 50.9 °F /  10.5 °C 29.70in /  1005.6hPa SSW 4.0mph /  6.4km/h 8.0mph /  12.9km/h 80% 0.00in /  0mm
03:34 57.0 °F /  13.9 °C 50.9 °F /  10.5 °C 29.70in /  1005.6hPa SW 4.0mph /  6.4km/h 9.0mph /  14.5km/h 80% 0.00in /  0mm
03:39 57.2 °F /  14 °C 50.7 °F /  10.4 °C 29.70in /  1005.6hPa SW 8.0mph /  12.9km/h 9.0mph /  14.5km/h 79% 0.00in /  0mm
03:44 57.4 °F /  14.1 °C 50.9 °F /  10.5 °C 29.70in /  1005.6hPa SW 5.0mph /  8km/h 11.0mph /  17.7km/h 79% 0.00in /  0mm
03:49 57.5 °F /  14.2 °C 51.0 °F /  10.6 °C 29.70in /  1005.6hPa South 4.0mph /  6.4km/h 10.0mph /  16.1km/h 79% 0.00in /  0mm
03:54 57.4 °F /  14.1 °C 50.9 °F /  10.5 °C 29.70in /  1005.6hPa SSW 6.0mph /  9.7km/h 11.0mph /  17.7km/h 79% 0.00in /  0mm
03:59 57.4 °F /  14.1 °C 50.9 °F /  10.5 °C 29.69in /  1005.3hPa South 4.0mph /  6.4km/h 11.0mph /  17.7km/h 79% 0.00in /  0mm
04:04 57.0 °F /  13.9 °C 50.5 °F /  10.3 °C 29.70in /  1005.6hPa SSW 2.0mph /  3.2km/h 9.0mph /  14.5km/h 79% 0.00in /  0mm
04:09 56.8 °F /  13.8 °C 50.7 °F /  10.4 °C 29.69in /  1005.3hPa SSW 4.0mph /  6.4km/h 9.0mph /  14.5km/h 80% 0.00in /  0mm
04:14 56.8 °F /  13.8 °C 50.7 °F /  10.4 °C 29.69in /  1005.3hPa SSW 4.0mph /  6.4km/h 9.0mph /  14.5km/h 80% 0.00in /  0mm
04:19 56.9 °F /  13.8 °C 50.8 °F /  10.4 °C 29.69in /  1005.3hPa SSW 5.0mph /  8km/h 9.0mph /  14.5km/h 80% 0.00in /  0mm
04:24 57.0 °F /  13.9 °C 50.9 °F /  10.5 °C 29.69in /  1005.3hPa SSW 5.0mph /  8km/h 9.0mph /  14.5km/h 80% 0.00in /  0mm
04:29 56.9 °F /  13.8 °C 50.8 °F /  10.4 °C 29.69in /  1005.3hPa SSW 4.0mph /  6.4km/h 9.0mph /  14.5km/h 80% 0.00in /  0mm
04:34 56.7 °F /  13.7 °C 50.9 °F /  10.5 °C 29.69in /  1005.3hPa SSW 4.0mph /  6.4km/h 9.0mph /  14.5km/h 81% 0.00in /  0mm
04:39 56.5 °F /  13.6 °C 50.7 °F /  10.4 °C 29.69in /  1005.3hPa SSW 6.0mph /  9.7km/h 7.0mph /  11.3km/h 81% 0.00in /  0mm
04:44 56.5 °F /  13.6 °C 50.7 °F /  10.4 °C 29.69in /  1005.3hPa SSW 4.0mph /  6.4km/h 8.0mph /  12.9km/h 81% 0.00in /  0mm
04:49 56.3 °F /  13.5 °C 50.5 °F /  10.3 °C 29.69in /  1005.3hPa SW 3.0mph /  4.8km/h 10.0mph /  16.1km/h 81% 0.00in /  0mm
04:54 56.0 °F /  13.3 °C 50.3 °F /  10.2 °C 29.69in /  1005.3hPa South 4.0mph /  6.4km/h 7.0mph /  11.3km/h 81% 0.00in /  0mm
04:59 56.0 °F /  13.3 °C 50.6 °F /  10.3 °C 29.69in /  1005.3hPa South 5.0mph /  8km/h 8.0mph /  12.9km/h 82% 0.00in /  0mm
05:04 55.7 °F /  13.2 °C 50.3 °F /  10.2 °C 29.68in /  1005hPa South 3.0mph /  4.8km/h 7.0mph /  11.3km/h 82% 0.00in /  0mm
05:09 55.7 °F /  13.2 °C 50.3 °F /  10.2 °C 29.69in /  1005.3hPa South 6.0mph /  9.7km/h 10.0mph /  16.1km/h 82% 0.00in /  0mm
05:14 55.7 °F /  13.2 °C 50.6 °F /  10.3 °C 29.69in /  1005.3hPa SSW 5.0mph /  8km/h 10.0mph /  16.1km/h 83% 0.00in /  0mm
05:19 55.9 °F /  13.3 °C 50.5 °F /  10.3 °C 29.68in /  1005hPa SSW 4.0mph /  6.4km/h 11.0mph /  17.7km/h 82% 0.00in /  0mm
05:24 56.2 °F /  13.4 °C 50.8 °F /  10.4 °C 29.68in /  1005hPa SSW 5.0mph /  8km/h 11.0mph /  17.7km/h 82% 0.00in /  0mm
05:29 56.0 °F /  13.3 °C 50.6 °F /  10.3 °C 29.69in /  1005.3hPa SSW 5.0mph /  8km/h 11.0mph /  17.7km/h 82% 0.00in /  0mm
05:34 56.2 °F /  13.4 °C 50.8 °F /  10.4 °C 29.69in /  1005.3hPa SSW 4.0mph /  6.4km/h 8.0mph /  12.9km/h 82% 0.00in /  0mm
05:39 56.2 °F /  13.4 °C 50.8 °F /  10.4 °C 29.68in /  1005hPa South 2.0mph /  3.2km/h 9.0mph /  14.5km/h 82% 0.00in /  0mm
05:44 56.2 °F /  13.4 °C 50.8 °F /  10.4 °C 29.68in /  1005hPa SSW 5.0mph /  8km/h 10.0mph /  16.1km/h 82% 0.00in /  0mm
05:49 56.2 °F /  13.4 °C 50.8 °F /  10.4 °C 29.68in /  1005hPa SSW 4.0mph /  6.4km/h 10.0mph /  16.1km/h 82% 0.00in /  0mm
05:54 56.1 °F /  13.4 °C 50.7 °F /  10.4 °C 29.67in /  1004.6hPa South 3.0mph /  4.8km/h 8.0mph /  12.9km/h 82% 0.00in /  0mm
05:59 55.9 °F /  13.3 °C 50.5 °F /  10.3 °C 29.67in /  1004.6hPa SSW 7.0mph /  11.3km/h 12.0mph /  19.3km/h 82% 0.00in /  0mm
06:04 55.9 °F /  13.3 °C 50.5 °F /  10.3 °C 29.67in /  1004.6hPa SSW 5.0mph /  8km/h 13.0mph /  20.9km/h 82% 0.00in /  0mm
06:09 56.0 °F /  13.3 °C 50.6 °F /  10.3 °C 29.67in /  1004.6hPa South 3.0mph /  4.8km/h 12.0mph /  19.3km/h 82% 0.00in /  0mm
06:14 56.2 °F /  13.4 °C 50.8 °F /  10.4 °C 29.67in /  1004.6hPa South 3.0mph /  4.8km/h 12.0mph /  19.3km/h 82% 0.00in /  0mm
06:19 56.1 °F /  13.4 °C 50.7 °F /  10.4 °C 29.67in /  1004.6hPa SSW 5.0mph /  8km/h 12.0mph /  19.3km/h 82% 0.00in /  0mm
06:24 56.1 °F /  13.4 °C 50.7 °F /  10.4 °C 29.67in /  1004.6hPa SSW 5.0mph /  8km/h 9.0mph /  14.5km/h 82% 0.00in /  0mm
06:29 56.3 °F /  13.5 °C 50.9 °F /  10.5 °C 29.67in /  1004.6hPa SSW 6.0mph /  9.7km/h 11.0mph /  17.7km/h 82% 0.00in /  0mm
06:34 56.5 °F /  13.6 °C 50.7 °F /  10.4 °C 29.67in /  1004.6hPa South 7.0mph /  11.3km/h 11.0mph /  17.7km/h 81% 0.00in /  0mm
06:39 56.7 °F /  13.7 °C 50.9 °F /  10.5 °C 29.67in /  1004.6hPa South 4.0mph /  6.4km/h 16.0mph /  25.7km/h 81% 0.00in /  0mm
06:44 56.6 °F /  13.7 °C 51.2 °F /  10.7 °C 29.67in /  1004.6hPa SSW 4.0mph /  6.4km/h 13.0mph /  20.9km/h 82% 0.00in /  0mm
06:49 56.6 °F /  13.7 °C 51.2 °F /  10.7 °C 29.67in /  1004.6hPa SSW 6.0mph /  9.7km/h 13.0mph /  20.9km/h 82% 0.00in /  0mm
06:54 56.7 °F /  13.7 °C 51.3 °F /  10.7 °C 29.67in /  1004.6hPa SSW 6.0mph /  9.7km/h 12.0mph /  19.3km/h 82% 0.00in /  0mm
06:59 56.8 °F /  13.8 °C 51.4 °F /  10.8 °C 29.67in /  1004.6hPa SSW 6.0mph /  9.7km/h 14.0mph /  22.5km/h 82% 0.00in /  0mm
07:04 56.9 °F /  13.8 °C 51.5 °F /  10.8 °C 29.67in /  1004.6hPa SSW 6.0mph /  9.7km/h 14.0mph /  22.5km/h 82% 0.00in /  0mm
07:09 57.0 °F /  13.9 °C 51.6 °F /  10.9 °C 29.67in /  1004.6hPa SW 4.0mph /  6.4km/h 15.0mph /  24.1km/h 82% 0.00in /  0mm
07:14 57.1 °F /  13.9 °C 51.7 °F /  10.9 °C 29.67in /  1004.6hPa South 6.0mph /  9.7km/h 13.0mph /  20.9km/h 82% 0.00in /  0mm
07:19 57.1 °F /  13.9 °C 51.7 °F /  10.9 °C 29.67in /  1004.6hPa SSW 6.0mph /  9.7km/h 15.0mph /  24.1km/h 82% 0.00in /  0mm
07:24 57.2 °F /  14 °C 51.8 °F /  11 °C 29.67in /  1004.6hPa SSW 6.0mph /  9.7km/h 15.0mph /  24.1km/h 82% 0.00in /  0mm
07:29 57.3 °F /  14.1 °C 51.9 °F /  11.1 °C 29.67in /  1004.6hPa SW 4.0mph /  6.4km/h 10.0mph /  16.1km/h 82% 0.00in /  0mm
07:34 57.2 °F /  14 °C 51.8 °F /  11 °C 29.67in /  1004.6hPa SSW 4.0mph /  6.4km/h 10.0mph /  16.1km/h 82% 0.00in /  0mm
07:39 57.3 °F /  14.1 °C 51.9 °F /  11.1 °C 29.67in /  1004.6hPa South 7.0mph /  11.3km/h 10.0mph /  16.1km/h 82% 0.00in /  0mm
07:44 57.4 °F /  14.1 °C 51.6 °F /  10.9 °C 29.67in /  1004.6hPa WSW 4.0mph /  6.4km/h 11.0mph /  17.7km/h 81% 0.00in /  0mm
07:49 57.6 °F /  14.2 °C 52.1 °F /  11.2 °C 29.67in /  1004.6hPa SSW 5.0mph /  8km/h 11.0mph /  17.7km/h 82% 0.00in /  0mm
07:54 57.6 °F /  14.2 °C 52.1 °F /  11.2 °C 29.67in /  1004.6hPa SSW 5.0mph /  8km/h 11.0mph /  17.7km/h 82% 0.00in /  0mm
07:59 57.6 °F /  14.2 °C 52.1 °F /  11.2 °C 29.68in /  1005hPa SSW 5.0mph /  8km/h 11.0mph /  17.7km/h 82% 0.00in /  0mm
08:04 57.8 °F /  14.3 °C 52.0 °F /  11.1 °C 29.68in /  1005hPa SSW 5.0mph /  8km/h 11.0mph /  17.7km/h 81% 0.00in /  0mm
08:09 57.8 °F /  14.3 °C 52.0 °F /  11.1 °C 29.67in /  1004.6hPa SSW 5.0mph /  8km/h 12.0mph /  19.3km/h 81% 0.00in /  0mm
08:14 58.0 °F /  14.4 °C 52.2 °F /  11.2 °C 29.67in /  1004.6hPa SSW 5.0mph /  8km/h 14.0mph /  22.5km/h 81% 0.00in /  0mm
08:19 58.1 °F /  14.5 °C 52.3 °F /  11.3 °C 29.67in /  1004.6hPa SSW 8.0mph /  12.9km/h 12.0mph /  19.3km/h 81% 0.00in /  0mm
08:24 58.1 °F /  14.5 °C 52.3 °F /  11.3 °C 29.67in /  1004.6hPa SSW 6.0mph /  9.7km/h 14.0mph /  22.5km/h 81% 0.00in /  0mm
08:29 58.3 °F /  14.6 °C 52.5 °F /  11.4 °C 29.67in /  1004.6hPa SSW 6.0mph /  9.7km/h 14.0mph /  22.5km/h 81% 0.00in /  0mm
08:34 58.4 °F /  14.7 °C 52.6 °F /  11.4 °C 29.67in /  1004.6hPa SSW 6.0mph /  9.7km/h 14.0mph /  22.5km/h 81% 0.00in /  0mm
08:39 58.6 °F /  14.8 °C 52.8 °F /  11.6 °C 29.67in /  1004.6hPa South 7.0mph /  11.3km/h 11.0mph /  17.7km/h 81% 0.00in /  0mm
08:44 58.6 °F /  14.8 °C 52.8 °F /  11.6 °C 29.67in /  1004.6hPa SSW 3.0mph /  4.8km/h 14.0mph /  22.5km/h 81% 0.00in /  0mm
08:49 58.7 °F /  14.8 °C 52.9 °F /  11.6 °C 29.67in /  1004.6hPa SW 11.0mph /  17.7km/h 12.0mph /  19.3km/h 81% 0.00in /  0mm
08:54 58.9 °F /  14.9 °C 53.1 °F /  11.7 °C 29.67in /  1004.6hPa SSW 7.0mph /  11.3km/h 13.0mph /  20.9km/h 81% 0.00in /  0mm
08:59 58.9 °F /  14.9 °C 52.7 °F /  11.5 °C 29.67in /  1004.6hPa SW 7.0mph /  11.3km/h 14.0mph /  22.5km/h 80% 0.00in /  0mm
09:04 59.1 °F /  15.1 °C 52.9 °F /  11.6 °C 29.67in /  1004.6hPa SW 7.0mph /  11.3km/h 14.0mph /  22.5km/h 80% 0.00in /  0mm
09:09 59.3 °F /  15.2 °C 53.1 °F /  11.7 °C 29.67in /  1004.6hPa SSW 10.0mph /  16.1km/h 19.0mph /  30.6km/h 80% 0.00in /  0mm
09:14 59.4 °F /  15.2 °C 53.2 °F /  11.8 °C 29.67in /  1004.6hPa SW 10.0mph /  16.1km/h 16.0mph /  25.7km/h 80% 0.00in /  0mm
09:19 59.5 °F /  15.3 °C 53.3 °F /  11.8 °C 29.67in /  1004.6hPa SW 15.0mph /  24.1km/h 19.0mph /  30.6km/h 80% 0.00in /  0mm
09:24 59.5 °F /  15.3 °C 53.0 °F /  11.7 °C 29.67in /  1004.6hPa SW 12.0mph /  19.3km/h 17.0mph /  27.4km/h 79% 0.00in /  0mm
09:29 59.5 °F /  15.3 °C 53.3 °F /  11.8 °C 29.67in /  1004.6hPa SW 10.0mph /  16.1km/h 21.0mph /  33.8km/h 80% 0.00in /  0mm
09:34 59.5 °F /  15.3 °C 53.3 °F /  11.8 °C 29.67in /  1004.6hPa SW 11.0mph /  17.7km/h 21.0mph /  33.8km/h 80% 0.00in /  0mm
09:39 59.5 °F /  15.3 °C 53.3 °F /  11.8 °C 29.67in /  1004.6hPa SE 11.0mph /  17.7km/h 19.0mph /  30.6km/h 80% 0.00in /  0mm
09:44 59.5 °F /  15.3 °C 53.0 °F /  11.7 °C 29.67in /  1004.6hPa SW 10.0mph /  16.1km/h 21.0mph /  33.8km/h 79% 0.00in /  0mm
09:49 59.5 °F /  15.3 °C 53.0 °F /  11.7 °C 29.67in /  1004.6hPa WSW 5.0mph /  8km/h 18.0mph /  29km/h 79% 0.00in /  0mm
09:54 59.5 °F /  15.3 °C 53.3 °F /  11.8 °C 29.67in /  1004.6hPa ESE 5.0mph /  8km/h 19.0mph /  30.6km/h 80% 0.00in /  0mm
09:59 59.5 °F /  15.3 °C 53.3 °F /  11.8 °C 29.66in /  1004.3hPa SW 7.0mph /  11.3km/h 19.0mph /  30.6km/h 80% 0.00in /  0mm
10:04 59.5 °F /  15.3 °C 53.3 °F /  11.8 °C 29.66in /  1004.3hPa SW 10.0mph /  16.1km/h 19.0mph /  30.6km/h 80% 0.00in /  0mm
10:09 59.5 °F /  15.3 °C 53.3 °F /  11.8 °C 29.66in /  1004.3hPa SW 10.0mph /  16.1km/h 18.0mph /  29km/h 80% 0.00in /  0mm
10:14 59.5 °F /  15.3 °C 53.3 °F /  11.8 °C 29.67in /  1004.6hPa SW 10.0mph /  16.1km/h 18.0mph /  29km/h 80% 0.00in /  0mm
10:19 59.5 °F /  15.3 °C 53.3 °F /  11.8 °C 29.67in /  1004.6hPa SW 9.0mph /  14.5km/h 17.0mph /  27.4km/h 80% 0.00in /  0mm
10:24 59.5 °F /  15.3 °C 53.3 °F /  11.8 °C 29.67in /  1004.6hPa WSW 8.0mph /  12.9km/h 18.0mph /  29km/h 80% 0.00in /  0mm
10:29 59.4 °F /  15.2 °C 53.2 °F /  11.8 °C 29.67in /  1004.6hPa SW 12.0mph /  19.3km/h 19.0mph /  30.6km/h 80% 0.00in /  0mm
10:34 59.3 °F /  15.2 °C 53.1 °F /  11.7 °C 29.67in /  1004.6hPa SW 10.0mph /  16.1km/h 20.0mph /  32.2km/h 80% 0.00in /  0mm
10:39 59.2 °F /  15.1 °C 53.0 °F /  11.7 °C 29.67in /  1004.6hPa WSW 10.0mph /  16.1km/h 17.0mph /  27.4km/h 80% 0.00in /  0mm
10:44 59.2 °F /  15.1 °C 53.0 °F /  11.7 °C 29.67in /  1004.6hPa SW 9.0mph /  14.5km/h 17.0mph /  27.4km/h 80% 0.00in /  0mm
10:49 59.2 °F /  15.1 °C 53.0 °F /  11.7 °C 29.67in /  1004.6hPa SW 9.0mph /  14.5km/h 16.0mph /  25.7km/h 80% 0.00in /  0mm
10:54 59.1 °F /  15.1 °C 52.9 °F /  11.6 °C 29.66in /  1004.3hPa SW 9.0mph /  14.5km/h 17.0mph /  27.4km/h 80% 0.00in /  0mm
10:59 59.1 °F /  15.1 °C 52.9 °F /  11.6 °C 29.67in /  1004.6hPa SW 10.0mph /  16.1km/h 19.0mph /  30.6km/h 80% 0.00in /  0mm
11:04 59.1 °F /  15.1 °C 52.9 °F /  11.6 °C 29.67in /  1004.6hPa WSW 4.0mph /  6.4km/h 19.0mph /  30.6km/h 80% 0.00in /  0mm
11:09 59.0 °F /  15 °C 52.8 °F /  11.6 °C 29.67in /  1004.6hPa SW 9.0mph /  14.5km/h 20.0mph /  32.2km/h 80% 0.00in /  0mm
11:14 59.0 °F /  15 °C 52.8 °F /  11.6 °C 29.67in /  1004.6hPa SW 9.0mph /  14.5km/h 20.0mph /  32.2km/h 80% 0.00in /  0mm
11:19 59.1 °F /  15.1 °C 53.3 °F /  11.8 °C 29.67in /  1004.6hPa SW 9.0mph /  14.5km/h 16.0mph /  25.7km/h 81% 0.00in /  0mm
11:24 59.1 °F /  15.1 °C 52.9 °F /  11.6 °C 29.67in /  1004.6hPa WSW 9.0mph /  14.5km/h 20.0mph /  32.2km/h 80% 0.00in /  0mm
11:29 59.0 °F /  15 °C 52.8 °F /  11.6 °C 29.67in /  1004.6hPa WSW 10.0mph /  16.1km/h 16.0mph /  25.7km/h 80% 0.00in /  0mm
11:34 59.1 °F /  15.1 °C 52.9 °F /  11.6 °C 29.67in /  1004.6hPa WSW 7.0mph /  11.3km/h 18.0mph /  29km/h 80% 0.00in /  0mm
11:39 58.6 °F /  14.8 °C 52.1 °F /  11.2 °C 29.68in /  1005hPa WSW 9.0mph /  14.5km/h 18.0mph /  29km/h 79% 0.00in /  0mm
11:44 56.4 °F /  13.6 °C 50.3 °F /  10.2 °C 29.68in /  1005hPa WSW 13.0mph /  20.9km/h 18.0mph /  29km/h 80% 0.00in /  0mm
11:49 55.1 °F /  12.8 °C 50.0 °F /  10 °C 29.68in /  1005hPa WSW 9.0mph /  14.5km/h 15.0mph /  24.1km/h 83% 0.00in /  0mm
11:54 54.9 °F /  12.7 °C 50.2 °F /  10.1 °C 29.68in /  1005hPa SW 14.0mph /  22.5km/h 19.0mph /  30.6km/h 84% 0.00in /  0mm
11:59 54.8 °F /  12.7 °C 50.4 °F /  10.2 °C 29.68in /  1005hPa WNW 8.0mph /  12.9km/h 18.0mph /  29km/h 85% 0.00in /  0mm
12:04 54.9 °F /  12.7 °C 50.5 °F /  10.3 °C 29.68in /  1005hPa SW 9.0mph /  14.5km/h 20.0mph /  32.2km/h 85% 0.00in /  0mm
12:09 54.8 °F /  12.7 °C 50.4 °F /  10.2 °C 29.68in /  1005hPa WSW 10.0mph /  16.1km/h 20.0mph /  32.2km/h 85% 0.00in /  0mm
12:14 54.9 °F /  12.7 °C 50.5 °F /  10.3 °C 29.69in /  1005.3hPa WSW 10.0mph /  16.1km/h 20.0mph /  32.2km/h 85% 0.00in /  0mm
12:19 55.0 °F /  12.8 °C 50.6 °F /  10.3 °C 29.69in /  1005.3hPa WSW 11.0mph /  17.7km/h 20.0mph /  32.2km/h 85% 0.00in /  0mm
12:24 55.2 °F /  12.9 °C 50.8 °F /  10.4 °C 29.68in /  1005hPa WSW 11.0mph /  17.7km/h 20.0mph /  32.2km/h 85% 0.00in /  0mm
12:29 55.5 °F /  13.1 °C 51.1 °F /  10.6 °C 29.68in /  1005hPa WSW 13.0mph /  20.9km/h 22.0mph /  35.4km/h 85% 0.00in /  0mm
12:34 55.6 °F /  13.1 °C 50.5 °F /  10.3 °C 29.68in /  1005hPa West 10.0mph /  16.1km/h 15.0mph /  24.1km/h 83% 0.00in /  0mm
12:39 55.4 °F /  13 °C 50.0 °F /  10 °C 29.68in /  1005hPa WSW 10.0mph /  16.1km/h 18.0mph /  29km/h 82% 0.00in /  0mm
12:44 55.7 °F /  13.2 °C 50.6 °F /  10.3 °C 29.69in /  1005.3hPa WSW 10.0mph /  16.1km/h 18.0mph /  29km/h 83% 0.00in /  0mm
12:49 56.3 °F /  13.5 °C 50.9 °F /  10.5 °C 29.69in /  1005.3hPa WSW 8.0mph /  12.9km/h 16.0mph /  25.7km/h 82% 0.00in /  0mm
12:54 56.8 °F /  13.8 °C 51.0 °F /  10.6 °C 29.69in /  1005.3hPa WSW 12.0mph /  19.3km/h 17.0mph /  27.4km/h 81% 0.00in /  0mm
12:59 56.9 °F /  13.8 °C 51.1 °F /  10.6 °C 29.69in /  1005.3hPa West 7.0mph /  11.3km/h 15.0mph /  24.1km/h 81% 0.00in /  0mm
13:04 57.3 °F /  14.1 °C 51.2 °F /  10.7 °C 29.69in /  1005.3hPa West 4.0mph /  6.4km/h 17.0mph /  27.4km/h 80% 0.00in /  0mm
13:09 57.8 °F /  14.3 °C 51.7 °F /  10.9 °C 29.69in /  1005.3hPa West 7.0mph /  11.3km/h 17.0mph /  27.4km/h 80% 0.00in /  0mm
13:14 57.6 °F /  14.2 °C 51.1 °F /  10.6 °C 29.69in /  1005.3hPa West 8.0mph /  12.9km/h 17.0mph /  27.4km/h 79% 0.00in /  0mm
13:19 56.6 °F /  13.7 °C 50.8 °F /  10.4 °C 29.69in /  1005.3hPa West 10.0mph /  16.1km/h 22.0mph /  35.4km/h 81% 0.00in /  0mm
13:24 56.4 °F /  13.6 °C 50.6 °F /  10.3 °C 29.69in /  1005.3hPa West 11.0mph /  17.7km/h 25.0mph /  40.2km/h 81% 0.00in /  0mm
13:29 56.9 °F /  13.8 °C 51.1 °F /  10.6 °C 29.69in /  1005.3hPa West 10.0mph /  16.1km/h 25.0mph /  40.2km/h 81% 0.00in /  0mm
13:34 57.5 °F /  14.2 °C 51.4 °F /  10.8 °C 29.69in /  1005.3hPa West 8.0mph /  12.9km/h 18.0mph /  29km/h 80% 0.00in /  0mm
13:39 57.8 °F /  14.3 °C 51.3 °F /  10.7 °C 29.69in /  1005.3hPa West 8.0mph /  12.9km/h 19.0mph /  30.6km/h 79% 0.00in /  0mm
13:44 58.4 °F /  14.7 °C 51.6 °F /  10.9 °C 29.69in /  1005.3hPa WSW 6.0mph /  9.7km/h 16.0mph /  25.7km/h 78% 0.00in /  0mm
13:49 58.0 °F /  14.4 °C 51.2 °F /  10.7 °C 29.69in /  1005.3hPa South 13.0mph /  20.9km/h 18.0mph /  29km/h 78% 0.00in /  0mm
13:54 57.7 °F /  14.3 °C 50.9 °F /  10.5 °C 29.69in /  1005.3hPa SW 13.0mph /  20.9km/h 19.0mph /  30.6km/h 78% 0.00in /  0mm
13:59 57.8 °F /  14.3 °C 51.3 °F /  10.7 °C 29.69in /  1005.3hPa West 15.0mph /  24.1km/h 15.0mph /  24.1km/h 79% 0.00in /  0mm
14:04 56.6 °F /  13.7 °C 50.2 °F /  10.1 °C 29.70in /  1005.6hPa SW 11.0mph /  17.7km/h 22.0mph /  35.4km/h 79% 0.00in /  0mm
14:09 56.1 °F /  13.4 °C 50.0 °F /  10 °C 29.70in /  1005.6hPa WSW 10.0mph /  16.1km/h 17.0mph /  27.4km/h 80% 0.00in /  0mm
14:14 55.4 °F /  13 °C 49.3 °F /  9.6 °C 29.71in /  1006hPa SSE 4.0mph /  6.4km/h 17.0mph /  27.4km/h 80% 0.00in /  0mm
14:19 54.6 °F /  12.6 °C 48.6 °F /  9.2 °C 29.71in /  1006hPa WSW 8.0mph /  12.9km/h 17.0mph /  27.4km/h 80% 0.00in /  0mm
14:24 53.6 °F /  12 °C 48.2 °F /  9 °C 29.71in /  1006hPa SW 9.0mph /  14.5km/h 16.0mph /  25.7km/h 82% 0.00in /  0mm
14:29 52.2 °F /  11.2 °C 46.9 °F /  8.3 °C 29.72in /  1006.3hPa WSW 8.0mph /  12.9km/h 16.0mph /  25.7km/h 82% 0.00in /  0mm
14:34 51.5 °F /  10.8 °C 46.5 °F /  8.1 °C 29.72in /  1006.3hPa SW 8.0mph /  12.9km/h 16.0mph /  25.7km/h 83% 0.00in /  0mm
14:39 51.0 °F /  10.6 °C 46.0 °F /  7.8 °C 29.72in /  1006.3hPa SW 7.0mph /  11.3km/h 15.0mph /  24.1km/h 83% 0.00in /  0mm
14:44 51.0 °F /  10.6 °C 46.0 °F /  7.8 °C 29.72in /  1006.3hPa SW 8.0mph /  12.9km/h 14.0mph /  22.5km/h 83% 0.00in /  0mm
14:49 50.6 °F /  10.3 °C 45.9 °F /  7.7 °C 29.73in /  1006.7hPa WSW 6.0mph /  9.7km/h 14.0mph /  22.5km/h 84% 0.00in /  0mm
14:54 49.8 °F /  9.9 °C 45.5 °F /  7.5 °C 29.73in /  1006.7hPa SW 4.0mph /  6.4km/h 13.0mph /  20.9km/h 85% 0.00in /  0mm
14:59 49.7 °F /  9.8 °C 45.1 °F /  7.3 °C 29.73in /  1006.7hPa SW 7.0mph /  11.3km/h 14.0mph /  22.5km/h 84% 0.00in /  0mm
15:04 49.8 °F /  9.9 °C 45.2 °F /  7.3 °C 29.74in /  1007hPa SSW 6.0mph /  9.7km/h 18.0mph /  29km/h 84% 0.00in /  0mm
15:09 49.9 °F /  9.9 °C 45.6 °F /  7.6 °C 29.74in /  1007hPa SW 6.0mph /  9.7km/h 12.0mph /  19.3km/h 85% 0.00in /  0mm
15:14 49.5 °F /  9.7 °C 45.2 °F /  7.3 °C 29.74in /  1007hPa SW 7.0mph /  11.3km/h 16.0mph /  25.7km/h 85% 0.00in /  0mm
15:19 49.7 °F /  9.8 °C 45.4 °F /  7.4 °C 29.74in /  1007hPa SW 5.0mph /  8km/h 14.0mph /  22.5km/h 85% 0.00in /  0mm
15:24 50.1 °F /  10.1 °C 45.5 °F /  7.5 °C 29.74in /  1007hPa WSW 7.0mph /  11.3km/h 14.0mph /  22.5km/h 84% 0.00in /  0mm
15:29 50.4 °F /  10.2 °C 46.1 °F /  7.8 °C 29.74in /  1007hPa WSW 7.0mph /  11.3km/h 13.0mph /  20.9km/h 85% 0.00in /  0mm
15:34 50.1 °F /  10.1 °C 45.5 °F /  7.5 °C 29.74in /  1007hPa WSW 7.0mph /  11.3km/h 15.0mph /  24.1km/h 84% 0.00in /  0mm
15:39 50.3 °F /  10.2 °C 45.6 °F /  7.6 °C 29.74in /  1007hPa SW 8.0mph /  12.9km/h 17.0mph /  27.4km/h 84% 0.00in /  0mm
15:44 50.2 °F /  10.1 °C 45.6 °F /  7.6 °C 29.75in /  1007.3hPa SW 8.0mph /  12.9km/h 17.0mph /  27.4km/h 84% 0.00in /  0mm
15:49 49.9 °F /  9.9 °C 45.6 °F /  7.6 °C 29.75in /  1007.3hPa SW 8.0mph /  12.9km/h 15.0mph /  24.1km/h 85% 0.00in /  0mm
15:54 50.0 °F /  10 °C 45.4 °F /  7.4 °C 29.75in /  1007.3hPa SW 7.0mph /  11.3km/h 15.0mph /  24.1km/h 84% 0.00in /  0mm
15:59 50.0 °F /  10 °C 45.4 °F /  7.4 °C 29.75in /  1007.3hPa SW 6.0mph /  9.7km/h 15.0mph /  24.1km/h 84% 0.00in /  0mm
16:04 49.8 °F /  9.9 °C 45.5 °F /  7.5 °C 29.75in /  1007.3hPa SW 9.0mph /  14.5km/h 12.0mph /  19.3km/h 85% 0.00in /  0mm
16:09 49.8 °F /  9.9 °C 45.5 °F /  7.5 °C 29.75in /  1007.3hPa SW 8.0mph /  12.9km/h 11.0mph /  17.7km/h 85% 0.00in /  0mm
16:14 49.9 °F /  9.9 °C 45.6 °F /  7.6 °C 29.75in /  1007.3hPa WSW 6.0mph /  9.7km/h 15.0mph /  24.1km/h 85% 0.00in /  0mm
16:19 49.9 °F /  9.9 °C 45.6 °F /  7.6 °C 29.75in /  1007.3hPa West 4.0mph /  6.4km/h 13.0mph /  20.9km/h 85% 0.00in /  0mm
16:24 49.9 °F /  9.9 °C 45.6 °F /  7.6 °C 29.76in /  1007.7hPa SW 8.0mph /  12.9km/h 13.0mph /  20.9km/h 85% 0.00in /  0mm
16:29 49.7 °F /  9.8 °C 45.4 °F /  7.4 °C 29.76in /  1007.7hPa SW 6.0mph /  9.7km/h 14.0mph /  22.5km/h 85% 0.00in /  0mm
16:34 49.6 °F /  9.8 °C 45.3 °F /  7.4 °C 29.76in /  1007.7hPa SW 6.0mph /  9.7km/h 14.0mph /  22.5km/h 85% 0.00in /  0mm
16:39 49.4 °F /  9.7 °C 45.4 °F /  7.4 °C 29.76in /  1007.7hPa SW 6.0mph /  9.7km/h 14.0mph /  22.5km/h 86% 0.00in /  0mm
16:44 49.4 °F /  9.7 °C 45.4 °F /  7.4 °C 29.76in /  1007.7hPa SW 7.0mph /  11.3km/h 14.0mph /  22.5km/h 86% 0.00in /  0mm
16:49 49.3 °F /  9.6 °C 45.6 °F /  7.6 °C 29.77in /  1008hPa SW 6.0mph /  9.7km/h 14.0mph /  22.5km/h 87% 0.00in /  0mm
16:54 49.2 °F /  9.6 °C 45.5 °F /  7.5 °C 29.77in /  1008hPa WSW 12.0mph /  19.3km/h 12.0mph /  19.3km/h 87% 0.00in /  0mm
16:59 49.4 °F /  9.7 °C 45.7 °F /  7.6 °C 29.77in /  1008hPa WSW 7.0mph /  11.3km/h 12.0mph /  19.3km/h 87% 0.00in /  0mm
17:04 49.5 °F /  9.7 °C 45.8 °F /  7.7 °C 29.77in /  1008hPa SW 12.0mph /  19.3km/h 12.0mph /  19.3km/h 87% 0.00in /  0mm
17:09 49.6 °F /  9.8 °C 45.9 °F /  7.7 °C 29.77in /  1008hPa WSW 8.0mph /  12.9km/h 15.0mph /  24.1km/h 87% 0.00in /  0mm
17:14 49.5 °F /  9.7 °C 45.8 °F /  7.7 °C 29.77in /  1008hPa SW 8.0mph /  12.9km/h 15.0mph /  24.1km/h 87% 0.00in /  0mm
17:19 49.4 °F /  9.7 °C 45.7 °F /  7.6 °C 29.78in /  1008.4hPa SW 8.0mph /  12.9km/h 14.0mph /  22.5km/h 87% 0.00in /  0mm
17:24 49.3 °F /  9.6 °C 45.6 °F /  7.6 °C 29.78in /  1008.4hPa WSW 6.0mph /  9.7km/h 14.0mph /  22.5km/h 87% 0.00in /  0mm
17:29 49.2 °F /  9.6 °C 45.5 °F /  7.5 °C 29.78in /  1008.4hPa SW 3.0mph /  4.8km/h 12.0mph /  19.3km/h 87% 0.00in /  0mm
17:34 49.0 °F /  9.4 °C 45.3 °F /  7.4 °C 29.79in /  1008.7hPa West 2.0mph /  3.2km/h 6.0mph /  9.7km/h 87% 0.00in /  0mm
17:39 48.8 °F /  9.3 °C 45.4 °F /  7.4 °C 29.80in /  1009hPa South 5.0mph /  8km/h 9.0mph /  14.5km/h 88% 0.00in /  0mm
17:44 48.5 °F /  9.2 °C 45.1 °F /  7.3 °C 29.80in /  1009hPa WSW 5.0mph /  8km/h 9.0mph /  14.5km/h 88% 0.00in /  0mm
17:49 48.2 °F /  9 °C 44.8 °F /  7.1 °C 29.80in /  1009hPa WSW 5.0mph /  8km/h 9.0mph /  14.5km/h 88% 0.00in /  0mm
17:54 47.9 °F /  8.8 °C 44.5 °F /  6.9 °C 29.81in /  1009.4hPa West 1.0mph /  1.6km/h 8.0mph /  12.9km/h 88% 0.00in /  0mm
17:59 47.8 °F /  8.8 °C 44.7 °F /  7.1 °C 29.81in /  1009.4hPa SW 5.0mph /  8km/h 6.0mph /  9.7km/h 89% 0.00in /  0mm
18:04 47.7 °F /  8.7 °C 44.6 °F /  7 °C 29.82in /  1009.7hPa SW 1.0mph /  1.6km/h 6.0mph /  9.7km/h 89% 0.00in /  0mm
18:09 47.3 °F /  8.5 °C 44.2 °F /  6.8 °C 29.82in /  1009.7hPa SW 3.0mph /  4.8km/h 9.0mph /  14.5km/h 89% 0.00in /  0mm
18:14 47.4 °F /  8.6 °C 44.3 °F /  6.8 °C 29.82in /  1009.7hPa WSW 3.0mph /  4.8km/h 9.0mph /  14.5km/h 89% 0.00in /  0mm
18:19 47.4 °F /  8.6 °C 44.3 °F /  6.8 °C 29.83in /  1010hPa WSW 3.0mph /  4.8km/h 5.0mph /  8km/h 89% 0.00in /  0mm
18:24 47.4 °F /  8.6 °C 44.3 °F /  6.8 °C 29.83in /  1010hPa WSW 3.0mph /  4.8km/h 6.0mph /  9.7km/h 89% 0.00in /  0mm
18:29 47.4 °F /  8.6 °C 44.3 °F /  6.8 °C 29.83in /  1010hPa SW 4.0mph /  6.4km/h 5.0mph /  8km/h 89% 0.00in /  0mm
18:34 47.3 °F /  8.5 °C 44.2 °F /  6.8 °C 29.84in /  1010.4hPa SW 3.0mph /  4.8km/h 6.0mph /  9.7km/h 89% 0.00in /  0mm
18:39 47.1 °F /  8.4 °C 44.0 °F /  6.7 °C 29.83in /  1010hPa WSW 3.0mph /  4.8km/h 4.0mph /  6.4km/h 89% 0.00in /  0mm
18:49 46.8 °F /  8.2 °C 43.7 °F /  6.5 °C 29.84in /  1010.4hPa SW 1.0mph /  1.6km/h 4.0mph /  6.4km/h 89% 0.00in /  0mm
18:54 46.8 °F /  8.2 °C 44.0 °F /  6.7 °C 29.85in /  1010.7hPa SSW 1.0mph /  1.6km/h 4.0mph /  6.4km/h 90% 0.00in /  0mm
18:59 46.7 °F /  8.2 °C 43.9 °F /  6.6 °C 29.85in /  1010.7hPa SW 1.0mph /  1.6km/h 4.0mph /  6.4km/h 90% 0.00in /  0mm
19:04 46.6 °F /  8.1 °C 43.8 °F /  6.6 °C 29.85in /  1010.7hPa Calm   3.0mph /  4.8km/h 90% 0.00in /  0mm
19:09 46.7 °F /  8.2 °C 43.9 °F /  6.6 °C 29.85in /  1010.7hPa SW 1.0mph /  1.6km/h 2.0mph /  3.2km/h 90% 0.00in /  0mm
19:14 46.5 °F /  8.1 °C 43.7 °F /  6.5 °C 29.85in /  1010.7hPa SW 1.0mph /  1.6km/h 2.0mph /  3.2km/h 90% 0.00in /  0mm
19:19 46.5 °F /  8.1 °C 43.7 °F /  6.5 °C 29.85in /  1010.7hPa Calm     90% 0.00in /  0mm
19:24 46.3 °F /  7.9 °C 43.5 °F /  6.4 °C 29.85in /  1010.7hPa Calm   1.0mph /  1.6km/h 90% 0.00in /  0mm
19:29 46.2 °F /  7.9 °C 43.4 °F /  6.3 °C 29.85in /  1010.7hPa Calm   2.0mph /  3.2km/h 90% 0.00in /  0mm
19:34 46.1 °F /  7.8 °C 43.3 °F /  6.3 °C 29.85in /  1010.7hPa Calm   1.0mph /  1.6km/h 90% 0.00in /  0mm
19:39 45.8 °F /  7.7 °C 43.0 °F /  6.1 °C 29.85in /  1010.7hPa Calm     90% 0.00in /  0mm
19:44 45.5 °F /  7.5 °C 42.7 °F /  5.9 °C 29.85in /  1010.7hPa Calm     90% 0.00in /  0mm
19:49 45.3 °F /  7.4 °C 42.5 °F /  5.8 °C 29.85in /  1010.7hPa Calm     90% 0.00in /  0mm
19:54 45.2 °F /  7.3 °C 42.4 °F /  5.8 °C 29.84in /  1010.4hPa Calm     90% 0.00in /  0mm
19:59 45.3 °F /  7.4 °C 42.8 °F /  6 °C 29.85in /  1010.7hPa Calm     91% 0.00in /  0mm
20:04 45.2 °F /  7.3 °C 42.4 °F /  5.8 °C 29.84in /  1010.4hPa Calm     90% 0.00in /  0mm
20:09 45.0 °F /  7.2 °C 42.2 °F /  5.7 °C 29.85in /  1010.7hPa Calm     90% 0.00in /  0mm
20:14 44.9 °F /  7.2 °C 42.4 °F /  5.8 °C 29.86in /  1011.1hPa Calm     91% 0.00in /  0mm
20:19 45.0 °F /  7.2 °C 42.5 °F /  5.8 °C 29.86in /  1011.1hPa Calm     91% 0.00in /  0mm
20:24 45.2 °F /  7.3 °C 42.4 °F /  5.8 °C 29.85in /  1010.7hPa Calm     90% 0.00in /  0mm
20:29 45.1 °F /  7.3 °C 42.3 °F /  5.7 °C 29.86in /  1011.1hPa Calm     90% 0.00in /  0mm
20:34 44.7 °F /  7.1 °C 41.9 °F /  5.5 °C 29.86in /  1011.1hPa SW 1.0mph /  1.6km/h 1.0mph /  1.6km/h 90% 0.00in /  0mm
20:39 44.5 °F /  6.9 °C 41.7 °F /  5.4 °C 29.86in /  1011.1hPa Calm   1.0mph /  1.6km/h 90% 0.00in /  0mm
20:44 44.4 °F /  6.9 °C 41.7 °F /  5.4 °C 29.87in /  1011.4hPa Calm     90% 0.00in /  0mm
20:49 44.3 °F /  6.8 °C 41.6 °F /  5.3 °C 29.87in /  1011.4hPa Calm     90% 0.00in /  0mm
20:54 44.2 °F /  6.8 °C 41.2 °F /  5.1 °C 29.86in /  1011.1hPa Calm     89% 0.00in /  0mm
20:59 44.1 °F /  6.7 °C 41.1 °F /  5.1 °C 29.86in /  1011.1hPa Calm     89% 0.00in /  0mm
21:04 44.4 °F /  6.9 °C 41.4 °F /  5.2 °C 29.86in /  1011.1hPa Calm     89% 0.00in /  0mm
21:09 44.9 °F /  7.2 °C 41.6 °F /  5.3 °C 29.87in /  1011.4hPa Calm     88% 0.00in /  0mm
21:14 45.0 °F /  7.2 °C 41.4 °F /  5.2 °C 29.87in /  1011.4hPa Calm     87% 0.00in /  0mm
21:19 44.8 °F /  7.1 °C 41.2 °F /  5.1 °C 29.87in /  1011.4hPa Calm     87% 0.00in /  0mm
21:24 44.6 °F /  7 °C 41.0 °F /  5 °C 29.87in /  1011.4hPa Calm     87% 0.00in /  0mm
21:29 44.8 °F /  7.1 °C 41.2 °F /  5.1 °C 29.87in /  1011.4hPa Calm     87% 0.00in /  0mm
21:34 45.3 °F /  7.4 °C 41.7 °F /  5.4 °C 29.88in /  1011.7hPa Calm     87% 0.00in /  0mm
21:39 45.5 °F /  7.5 °C 41.6 °F /  5.3 °C 29.88in /  1011.7hPa Calm     86% 0.00in /  0mm
21:44 45.5 °F /  7.5 °C 41.3 °F /  5.2 °C 29.88in /  1011.7hPa Calm     85% 0.00in /  0mm
21:49 45.9 °F /  7.7 °C 41.6 °F /  5.3 °C 29.88in /  1011.7hPa Calm   2.0mph /  3.2km/h 85% 0.00in /  0mm
21:54 46.0 °F /  7.8 °C 41.1 °F /  5.1 °C 29.87in /  1011.4hPa Calm   2.0mph /  3.2km/h 83% 0.00in /  0mm
21:59 46.3 °F /  7.9 °C 41.4 °F /  5.2 °C 29.87in /  1011.4hPa NNW 1.0mph /  1.6km/h 2.0mph /  3.2km/h 83% 0.00in /  0mm
22:04 46.7 °F /  8.2 °C 41.2 °F /  5.1 °C 29.87in /  1011.4hPa NNW 1.0mph /  1.6km/h 2.0mph /  3.2km/h 81% 0.00in /  0mm
22:09 46.6 °F /  8.1 °C 41.4 °F /  5.2 °C 29.87in /  1011.4hPa North 1.0mph /  1.6km/h 3.0mph /  4.8km/h 82% 0.00in /  0mm
22:14 46.7 °F /  8.2 °C 41.2 °F /  5.1 °C 29.86in /  1011.1hPa NNE 2.0mph /  3.2km/h 3.0mph /  4.8km/h 81% 0.00in /  0mm
22:19 46.5 °F /  8.1 °C 41.0 °F /  5 °C 29.87in /  1011.4hPa NE 2.0mph /  3.2km/h 5.0mph /  8km/h 81% 0.00in /  0mm
22:24 46.4 °F /  8 °C 40.9 °F /  4.9 °C 29.87in /  1011.4hPa NE 1.0mph /  1.6km/h 3.0mph /  4.8km/h 81% 0.00in /  0mm
22:29 46.2 °F /  7.9 °C 40.7 °F /  4.8 °C 29.86in /  1011.1hPa NE 3.0mph /  4.8km/h 7.0mph /  11.3km/h 81% 0.00in /  0mm
22:34 46.1 °F /  7.8 °C 40.6 °F /  4.8 °C 29.86in /  1011.1hPa NE 7.0mph /  11.3km/h 7.0mph /  11.3km/h 81% 0.00in /  0mm
22:39 45.8 °F /  7.7 °C 40.3 °F /  4.6 °C 29.86in /  1011.1hPa NE 2.0mph /  3.2km/h 7.0mph /  11.3km/h 81% 0.00in /  0mm
22:44 45.6 °F /  7.6 °C 40.1 °F /  4.5 °C 29.86in /  1011.1hPa ENE 4.0mph /  6.4km/h 6.0mph /  9.7km/h 81% 0.00in /  0mm
22:49 45.4 °F /  7.4 °C 39.9 °F /  4.4 °C 29.86in /  1011.1hPa NE 3.0mph /  4.8km/h 6.0mph /  9.7km/h 81% 0.00in /  0mm
22:54 45.0 °F /  7.2 °C 39.5 °F /  4.2 °C 29.86in /  1011.1hPa NE 3.0mph /  4.8km/h 5.0mph /  8km/h 81% 0.00in /  0mm
22:59 44.7 °F /  7.1 °C 39.5 °F /  4.2 °C 29.85in /  1010.7hPa NE 2.0mph /  3.2km/h 5.0mph /  8km/h 82% 0.00in /  0mm
23:04 44.5 °F /  6.9 °C 39.3 °F /  4.1 °C 29.86in /  1011.1hPa NE 2.0mph /  3.2km/h 5.0mph /  8km/h 82% 0.00in /  0mm
23:09 44.2 °F /  6.8 °C 39.1 °F /  3.9 °C 29.85in /  1010.7hPa NE 2.0mph /  3.2km/h 4.0mph /  6.4km/h 82% 0.00in /  0mm
23:14 43.9 °F /  6.6 °C 38.8 °F /  3.8 °C 29.85in /  1010.7hPa NE 2.0mph /  3.2km/h 3.0mph /  4.8km/h 82% 0.00in /  0mm
23:19 43.6 °F /  6.4 °C 38.8 °F /  3.8 °C 29.85in /  1010.7hPa NE 3.0mph /  4.8km/h 4.0mph /  6.4km/h 83% 0.00in /  0mm
23:24 43.6 °F /  6.4 °C 38.8 °F /  3.8 °C 29.85in /  1010.7hPa NE 2.0mph /  3.2km/h 4.0mph /  6.4km/h 83% 0.00in /  0mm
23:29 43.5 °F /  6.4 °C 38.7 °F /  3.7 °C 29.85in /  1010.7hPa NE 2.0mph /  3.2km/h 4.0mph /  6.4km/h 83% 0.00in /  0mm
23:34 43.3 °F /  6.3 °C 38.5 °F /  3.6 °C 29.85in /  1010.7hPa NE 2.0mph /  3.2km/h 4.0mph /  6.4km/h 83% 0.00in /  0mm
23:39 43.2 °F /  6.2 °C 38.4 °F /  3.6 °C 29.85in /  1010.7hPa NE 5.0mph /  8km/h 5.0mph /  8km/h 83% 0.00in /  0mm
23:44 43.1 °F /  6.2 °C 38.3 °F /  3.5 °C 29.86in /  1011.1hPa NE 2.0mph /  3.2km/h 5.0mph /  8km/h 83% 0.00in /  0mm
23:49 42.6 °F /  5.9 °C 38.1 °F /  3.4 °C 29.86in /  1011.1hPa NE 3.0mph /  4.8km/h 3.0mph /  4.8km/h 84% 0.00in /  0mm
23:54 42.5 °F /  5.8 °C 38.0 °F /  3.3 °C 29.85in /  1010.7hPa NE 2.0mph /  3.2km/h 4.0mph /  6.4km/h 84% 0.00in /  0mm
23:59 42.5 °F /  5.8 °C 38.0 °F /  3.3 °C 29.85in /  1010.7hPa NE 2.0mph /  3.2km/h 4.0mph /  6.4km/h 84% 0.00in /  0mm
Buffalo, New York, USA
Compliments of Weather Underground - 2.5 mb